Terminal Aerodrome Forecast
Issued by NWS

Home | Current Version | Previous Version | Text Only | Print | Product List | Glossary On
Versions: 1 2 3 4 5 6 7 8 9 10 11 12 13
732
FTUS43 KBIS 222328
TAFDIK
TAF
KDIK 222328Z 2300/2324 25007KT P6SM SCT200
     FM231900 29014G22KT P6SM SCT200
     FM232200 28012KT P6SM SKC=

USA.gov is the U.S. government's official web portal to all federal, state and local government web resources and services.